Time;durP1;ratioP1;P1;durP2;ratioP2;P2;SDS_P1;SDS_P2;PMS_P1;PMS_P2;Temp;Humidity;BMP_temperature;BMP_pressure;BME280_temperature;BME280_humidity;BME280_pressure;Samples;Min_cycle;Max_cycle;Signal;HPM_P1;HPM_P2
2023/05/24 00:01:08;;;;;;;7.45;4.30;;;;;;;14.28;100.00;92389.19;4937007;29;20046;-76
2023/05/24 00:03:37;;;;;;;6.40;4.07;;;;;;;14.29;100.00;92384.69;4930124;29;20401;-76
2023/05/24 00:06:05;;;;;;;7.32;4.25;;;;;;;14.27;100.00;92384.97;4953544;29;20058;-76
2023/05/24 00:08:33;;;;;;;7.68;4.60;;;;;;;14.25;100.00;92379.28;4954442;29;20100;-76
2023/05/24 00:10:59;;;;;;;6.72;4.10;;;;;;;14.26;100.00;92374.78;4945845;29;20062;-76
2023/05/24 00:13:25;;;;;;;6.97;4.38;;;;;;;14.26;100.00;92380.81;4910898;29;20040;-76
2023/05/24 00:15:51;;;;;;;7.90;4.30;;;;;;;14.26;100.00;92375.53;4934505;29;20040;-76
2023/05/24 00:18:17;;;;;;;6.22;3.90;;;;;;;14.26;100.00;92374.78;4934973;29;20032;-76
2023/05/24 00:20:43;;;;;;;6.25;4.07;;;;;;;14.28;100.00;92380.50;4934859;29;20379;-76
2023/05/24 00:23:09;;;;;;;7.05;4.18;;;;;;;14.26;100.00;92378.19;4951018;28;20030;-76
2023/05/24 00:25:35;;;;;;;9.25;4.45;;;;;;;14.26;100.00;92375.53;4954101;29;20086;-76
2023/05/24 00:28:00;;;;;;;7.30;4.07;;;;;;;14.26;100.00;92375.53;4953758;29;20024;-76
2023/05/24 00:30:26;;;;;;;9.30;3.97;;;;;;;14.27;100.00;92377.06;4953333;29;20058;-76
2023/05/24 00:32:54;;;;;;;7.60;4.25;;;;;;;14.28;100.00;92376.00;4953742;28;20031;-76
2023/05/24 00:35:20;;;;;;;7.43;4.18;;;;;;;14.27;100.00;92377.06;4950536;29;20054;-76
2023/05/24 00:37:45;;;;;;;6.38;4.03;;;;;;;14.23;100.00;92378.81;4917497;29;20031;-75
2023/05/24 00:40:12;;;;;;;8.20;4.10;;;;;;;14.22;100.00;92385.13;4935019;29;20044;-76
2023/05/24 00:42:37;;;;;;;7.13;3.90;;;;;;;14.19;100.00;92380.50;4952858;29;20346;-76
2023/05/24 00:45:03;;;;;;;7.60;3.70;;;;;;;14.19;100.00;92374.47;4953266;28;20086;-76
2023/05/24 00:47:29;;;;;;;6.60;4.20;;;;;;;14.17;100.00;92374.78;4944455;29;20035;-76
2023/05/24 00:49:55;;;;;;;7.93;3.95;;;;;;;14.15;100.00;92376.94;4940094;29;20128;-76
2023/05/24 00:52:21;;;;;;;10.13;4.00;;;;;;;14.13;100.00;92371.97;4932681;29;20535;-76
2023/05/24 00:54:48;;;;;;;8.45;4.05;;;;;;;14.10;100.00;92372.59;4933849;29;20039;-76
2023/05/24 00:57:14;;;;;;;10.88;4.07;;;;;;;14.05;100.00;92358.81;4916798;29;20465;-76
2023/05/24 00:59:39;;;;;;;7.53;4.07;;;;;;;14.04;100.00;92363.31;4931085;29;20047;-76
2023/05/24 01:02:05;;;;;;;7.05;3.92;;;;;;;14.01;100.00;92363.19;4917049;29;20107;-76
2023/05/24 01:04:32;;;;;;;7.13;4.07;;;;;;;13.99;100.00;92363.47;4916997;29;20188;-76
2023/05/24 01:07:22;;;;;;;7.55;4.20;;;;;;;13.95;100.00;92359.91;4917376;29;20031;-76
2023/05/24 01:10:12;;;;;;;6.63;4.22;;;;;;;13.91;100.00;92366.88;4915226;29;20471;-76
2023/05/24 01:12:43;;;;;;;6.60;3.90;;;;;;;13.86;100.00;92362.53;4924900;29;20114;-76
2023/05/24 01:15:30;;;;;;;9.63;4.20;;;;;;;13.83;100.00;92352.63;4934196;29;20039;-76
2023/05/24 01:18:08;;;;;;;6.82;3.58;;;;;;;13.82;100.00;92358.97;4933982;29;20127;-76
2023/05/24 01:20:37;;;;;;;6.78;3.80;;;;;;;13.80;100.00;92361.13;4934195;29;20122;-76
2023/05/24 01:23:30;;;;;;;7.78;3.40;;;;;;;13.77;100.00;92356.50;4916709;29;20107;-76
2023/05/24 01:26:44;;;;;;;6.25;3.78;;;;;;;13.73;100.00;92352.94;4932545;29;20078;-76
2023/05/24 01:29:12;;;;;;;5.82;3.70;;;;;;;13.71;100.00;92349.81;4900654;29;20411;-76
2023/05/24 01:31:38;;;;;;;8.18;3.38;;;;;;;13.70;100.00;92353.56;4916728;29;20028;-76
2023/05/24 01:34:05;;;;;;;5.88;3.42;;;;;;;13.67;100.00;92354.94;4933441;29;20048;-75
2023/05/24 01:36:30;;;;;;;6.25;3.60;;;;;;;13.69;100.00;92352.00;4932613;29;20570;-76
2023/05/24 01:38:56;;;;;;;9.70;3.80;;;;;;;13.66;100.00;92349.97;4933461;29;20131;-76
2023/05/24 01:41:38;;;;;;;6.50;3.28;;;;;;;13.65;100.00;92348.44;4917005;29;20039;-76
2023/05/24 01:44:24;;;;;;;5.47;3.30;;;;;;;13.65;100.00;92348.44;4933635;29;20035;-76
2023/05/24 01:47:01;;;;;;;5.38;3.22;;;;;;;13.63;100.00;92342.72;4916206;29;20130;-76
2023/05/24 01:49:37;;;;;;;8.02;3.10;;;;;;;13.62;100.00;92344.59;4916673;29;20090;-76
2023/05/24 01:52:07;;;;;;;5.47;3.35;;;;;;;13.61;100.00;92350.13;4933634;29;20039;-76
2023/05/24 01:54:39;;;;;;;6.82;3.58;;;;;;;13.58;100.00;92348.91;4915735;29;20063;-76
2023/05/24 01:57:07;;;;;;;6.32;3.13;;;;;;;13.56;100.00;92350.28;4927744;29;20044;-76
2023/05/24 01:59:35;;;;;;;6.43;3.20;;;;;;;13.52;100.00;92348.25;4914596;29;20036;-76
2023/05/24 02:02:01;;;;;;;5.75;3.22;;;;;;;13.50;100.00;92344.38;4914651;29;20087;-75
2023/05/24 02:04:27;;;;;;;7.35;3.30;;;;;;;13.47;100.00;92340.53;4914549;29;20024;-75
2023/05/24 02:06:52;;;;;;;6.00;3.10;;;;;;;13.47;100.00;92345.00;4897600;29;20449;-75
2023/05/24 02:09:18;;;;;;;9.23;3.85;;;;;;;13.43;100.00;92344.06;4914609;29;20047;-76
2023/05/24 02:11:43;;;;;;;6.90;3.22;;;;;;;13.42;100.00;92343.31;4896583;29;20040;-76
2023/05/24 02:14:10;;;;;;;6.97;3.20;;;;;;;13.39;100.00;92351.03;4897636;29;20028;-76
2023/05/24 02:16:41;;;;;;;5.85;3.35;;;;;;;13.37;100.00;92345.28;4913088;29;20134;-76
2023/05/24 02:19:08;;;;;;;8.13;3.30;;;;;;;13.35;100.00;92348.22;4901356;29;20039;-76
2023/05/24 02:21:34;;;;;;;7.28;3.20;;;;;;;13.35;100.00;92348.22;4933426;29;20152;-76
2023/05/24 02:23:59;;;;;;;6.97;3.55;;;;;;;13.36;100.00;92344.53;4916239;29;20421;-76
2023/05/24 02:26:25;;;;;;;6.32;3.40;;;;;;;13.37;99.59;92338.16;4933456;29;20059;-75
2023/05/24 02:28:50;;;;;;;7.13;3.45;;;;;;;13.35;100.00;92342.97;4933392;29;20039;-75
2023/05/24 02:31:16;;;;;;;8.60;3.70;;;;;;;13.33;100.00;92340.66;4916343;29;20087;-76
2023/05/24 02:33:42;;;;;;;8.38;3.40;;;;;;;13.30;100.00;92337.84;4933408;29;20535;-76
2023/05/24 02:36:08;;;;;;;7.78;3.70;;;;;;;13.24;100.00;92339.03;4914441;29;20040;-76
2023/05/24 02:38:35;;;;;;;5.18;3.00;;;;;;;13.17;100.00;92336.09;4915242;29;20491;-76
2023/05/24 02:41:01;;;;;;;7.38;3.13;;;;;;;13.15;100.00;92338.25;4916572;29;20024;-76
2023/05/24 02:43:27;;;;;;;6.25;3.40;;;;;;;13.13;100.00;92338.56;4900714;29;20083;-76
2023/05/24 02:45:53;;;;;;;6.15;3.33;;;;;;;13.12;100.00;92335.16;4917378;29;20068;-76
2023/05/24 02:48:18;;;;;;;5.63;3.10;;;;;;;13.09;100.00;92337.63;4921923;29;20087;-76
2023/05/24 02:50:44;;;;;;;5.22;3.33;;;;;;;13.07;100.00;92337.91;4919546;29;20039;-75
2023/05/24 02:53:10;;;;;;;6.53;3.20;;;;;;;13.04;100.00;92338.53;4906158;29;20080;-76
2023/05/24 02:55:36;;;;;;;8.50;3.20;;;;;;;13.03;100.00;92333.56;4913054;29;20511;-76
2023/05/24 02:58:02;;;;;;;7.68;3.10;;;;;;;13.02;100.00;92334.66;4898347;29;20055;-76
2023/05/24 03:00:29;;;;;;;7.55;3.45;;;;;;;13.00;100.00;92326.31;4912953;29;20088;-76
2023/05/24 03:02:56;;;;;;;5.35;3.30;;;;;;;12.98;100.00;92329.22;4913037;29;20476;-76
2023/05/24 03:05:22;;;;;;;5.80;3.20;;;;;;;12.95;100.00;92329.84;4897424;29;20080;-76
2023/05/24 03:07:47;;;;;;;6.70;3.67;;;;;;;12.96;100.00;92336.66;4913141;29;20396;-76
2023/05/24 03:10:14;;;;;;;6.35;3.40;;;;;;;12.97;100.00;92327.69;4912821;29;20247;-76
2023/05/24 03:12:40;;;;;;;5.40;3.35;;;;;;;12.96;100.00;92326.13;4912591;29;20077;-76
2023/05/24 03:15:06;;;;;;;7.03;3.50;;;;;;;12.94;100.00;92323.03;4912432;29;20032;-75
2023/05/24 03:17:32;;;;;;;5.75;3.30;;;;;;;12.93;100.00;92325.97;4897090;29;20570;-76
2023/05/24 03:19:57;;;;;;;7.22;3.47;;;;;;;12.89;100.00;92321.31;4912467;29;20084;-76
2023/05/24 03:22:23;;;;;;;5.28;3.45;;;;;;;12.89;100.00;92325.81;4896786;29;20407;-76
2023/05/24 03:24:48;;;;;;;5.75;3.70;;;;;;;12.86;100.00;92329.03;4912517;29;20064;-76
2023/05/24 03:27:14;;;;;;;6.25;3.50;;;;;;;12.85;100.00;92330.88;4912685;29;20040;-76
2023/05/24 03:29:40;;;;;;;7.32;3.38;;;;;;;12.85;100.00;92328.25;4912870;29;20490;-76
2023/05/24 03:32:06;;;;;;;7.10;3.42;;;;;;;12.87;100.00;92322.69;4912223;29;20143;-76
2023/05/24 03:34:32;;;;;;;6.03;3.53;;;;;;;12.91;100.00;92328.91;4898123;29;20068;-76
2023/05/24 03:36:58;;;;;;;5.40;3.30;;;;;;;12.97;100.00;92332.16;4912445;29;20068;-76
2023/05/24 03:39:24;;;;;;;7.00;3.38;;;;;;;12.97;100.00;92337.41;4912280;29;20131;-76
2023/05/24 03:41:56;;;;;;;6.75;3.30;;;;;;;12.96;100.00;92336.66;4912232;29;20448;-76
2023/05/24 03:44:22;;;;;;;7.20;3.30;;;;;;;12.98;100.00;92344.22;4896602;29;20048;-76
2023/05/24 03:46:47;;;;;;;5.47;3.30;;;;;;;12.97;100.00;92335.56;4895906;29;20029;-76
2023/05/24 03:49:13;;;;;;;5.32;3.15;;;;;;;12.96;100.00;92339.28;4911964;29;20074;-76
2023/05/24 03:51:39;;;;;;;5.85;3.05;;;;;;;12.95;100.00;92340.34;4911387;29;20076;-76
2023/05/24 03:54:04;;;;;;;5.90;3.60;;;;;;;12.96;100.00;92347.16;4895881;29;20468;-76
2023/05/24 03:56:30;;;;;;;6.10;3.40;;;;;;;12.96;100.00;92347.16;4880973;29;20044;-76
2023/05/24 03:58:59;;;;;;;7.22;3.80;;;;;;;12.96;100.00;92341.91;4895801;29;20088;-76
2023/05/24 04:01:25;;;;;;;5.20;3.35;;;;;;;12.98;100.00;92347.63;4897354;29;20115;-76
2023/05/24 04:03:54;;;;;;;7.25;3.58;;;;;;;13.01;100.00;92347.00;4897612;29;20445;-76
2023/05/24 04:06:20;;;;;;;5.97;3.70;;;;;;;13.03;100.00;92346.72;4896041;29;20206;-76
2023/05/24 04:08:46;;;;;;;5.70;3.58;;;;;;;13.05;100.00;92342.69;4896144;29;20084;-76
2023/05/24 04:11:12;;;;;;;7.25;4.00;;;;;;;13.12;100.00;92340.41;4896213;29;20029;-75
2023/05/24 04:13:37;;;;;;;6.47;4.00;;;;;;;13.18;100.00;92342.91;4911706;29;20041;-75
2023/05/24 04:16:03;;;;;;;10.98;5.10;;;;;;;13.22;100.00;92349.09;4895547;29;20036;-76
2023/05/24 04:18:29;;;;;;;8.98;5.28;;;;;;;13.25;100.00;92344.00;4895710;29;20499;-76
2023/05/24 04:20:54;;;;;;;8.10;4.53;;;;;;;13.32;100.00;92351.47;4895707;29;20555;-76
2023/05/24 04:23:20;;;;;;;10.15;4.40;;;;;;;13.35;100.00;92347.44;4896922;29;20119;-76
2023/05/24 04:25:46;;;;;;;8.63;4.28;;;;;;;13.39;100.00;92346.53;4896875;29;20468;-76
2023/05/24 04:28:12;;;;;;;7.55;4.15;;;;;;;13.43;100.00;92344.06;4896978;29;20047;-78
2023/05/24 04:30:37;;;;;;;12.48;4.05;;;;;;;13.49;100.00;92343.63;4898222;29;20036;-78
2023/05/24 04:33:03;;;;;;;7.45;4.05;;;;;;;13.52;100.00;92343.00;4913149;29;20040;-78
2023/05/24 04:35:29;;;;;;;9.93;4.30;;;;;;;13.61;100.00;92339.63;4897594;29;20029;-78
2023/05/24 04:37:56;;;;;;;6.95;4.25;;;;;;;13.64;100.00;92342.38;4913338;29;20323;-78
2023/05/24 04:40:22;;;;;;;9.90;4.13;;;;;;;13.68;100.00;92342.56;4897482;29;20036;-77
2023/05/24 04:42:49;;;;;;;7.90;4.20;;;;;;;13.72;100.00;92344.25;4899058;29;20040;-78
2023/05/24 04:45:15;;;;;;;9.93;4.10;;;;;;;13.75;100.00;92342.88;4897734;29;20088;-78
2023/05/24 04:47:41;;;;;;;7.63;4.63;;;;;;;13.78;100.00;92350.16;4898654;29;20503;-77
2023/05/24 04:50:07;;;;;;;7.57;4.07;;;;;;;13.80;100.00;92350.59;4899272;29;20036;-76
2023/05/24 04:52:35;;;;;;;6.53;3.70;;;;;;;13.84;100.00;92351.53;4907970;29;20043;-78
2023/05/24 04:55:02;;;;;;;8.98;4.38;;;;;;;13.89;100.00;92359.31;4937999;29;20048;-78
2023/05/24 04:57:28;;;;;;;7.22;4.03;;;;;;;13.93;100.00;92357.56;4919774;29;20572;-77
2023/05/24 04:59:53;;;;;;;5.40;3.70;;;;;;;13.96;100.00;92358.84;4920153;29;20090;-78
2023/05/24 05:02:20;;;;;;;8.88;3.88;;;;;;;13.99;100.00;92357.44;4920415;29;20075;-78
2023/05/24 05:04:46;;;;;;;8.15;4.00;;;;;;;14.03;100.00;92355.75;4922205;29;20110;-78
2023/05/24 05:07:11;;;;;;;6.72;3.83;;;;;;;14.05;100.00;92353.56;4924422;29;20520;-79
2023/05/24 05:09:37;;;;;;;7.55;4.15;;;;;;;14.07;100.00;92354.81;4921233;29;20399;-78
2023/05/24 05:12:03;;;;;;;9.60;3.83;;;;;;;14.13;100.00;92358.06;4922280;29;20470;-79
2023/05/24 05:14:28;;;;;;;8.02;4.10;;;;;;;14.14;100.00;92356.97;4939043;29;20032;-79
2023/05/24 05:16:54;;;;;;;7.07;4.10;;;;;;;14.17;100.00;92351.09;4924815;29;20509;-80
2023/05/24 05:19:20;;;;;;;8.23;4.00;;;;;;;14.20;100.00;92350.44;4938802;29;20114;-78
2023/05/24 05:21:45;;;;;;;10.13;4.05;;;;;;;14.25;100.00;92349.53;4936304;29;20061;-77
2023/05/24 05:24:11;;;;;;;7.95;3.95;;;;;;;14.27;100.00;92350.75;4934918;29;20040;-77
2023/05/24 05:26:37;;;;;;;9.65;3.92;;;;;;;14.31;100.00;92348.28;4935902;29;20035;-78
2023/05/24 05:29:02;;;;;;;8.27;4.30;;;;;;;14.35;100.00;92352.59;4935509;29;20022;-78
2023/05/24 05:31:28;;;;;;;9.40;4.10;;;;;;;14.40;100.00;92337.75;4935634;29;20050;-78
2023/05/24 05:33:54;;;;;;;7.55;3.97;;;;;;;14.46;100.00;92350.44;4935748;29;20036;-78
2023/05/24 05:36:19;;;;;;;6.90;3.85;;;;;;;14.54;100.00;92349.66;4935893;29;20044;-78
2023/05/24 05:38:45;;;;;;;6.45;3.88;;;;;;;14.66;100.00;92350.88;4935747;29;20032;-77
2023/05/24 05:41:11;;;;;;;7.22;4.18;;;;;;;14.81;100.00;92347.72;4935848;29;20051;-78
2023/05/24 05:43:37;;;;;;;11.45;4.07;;;;;;;14.97;100.00;92347.97;4935790;29;20056;-78
2023/05/24 05:46:03;;;;;;;6.50;3.60;;;;;;;15.16;100.00;92352.88;4935664;29;20426;-78
2023/05/24 05:48:29;;;;;;;6.97;3.95;;;;;;;15.33;100.00;92350.16;4918970;29;20028;-78
2023/05/24 05:50:54;;;;;;;10.02;4.35;;;;;;;15.49;100.00;92353.03;4919099;29;20043;-78
2023/05/24 05:53:20;;;;;;;5.95;4.03;;;;;;;15.65;100.00;92352.44;4918543;29;20055;-77
2023/05/24 05:55:46;;;;;;;6.75;4.30;;;;;;;15.79;100.00;92356.44;4917707;29;20094;-76
2023/05/24 05:58:11;;;;;;;8.63;4.00;;;;;;;15.87;100.00;92357.47;4899930;29;20039;-79
2023/05/24 06:00:39;;;;;;;7.32;4.35;;;;;;;15.97;100.00;92362.38;4934673;29;20050;-77
2023/05/24 06:03:04;;;;;;;9.98;4.05;;;;;;;16.02;100.00;92367.44;4934124;29;20019;-77
2023/05/24 06:05:30;;;;;;;8.82;3.92;;;;;;;15.95;97.63;92372.47;4933690;29;20513;-77
2023/05/24 06:07:55;;;;;;;9.50;4.30;;;;;;;15.88;98.99;92377.50;4914838;29;20036;-77
2023/05/24 06:10:21;;;;;;;10.10;4.00;;;;;;;15.74;99.89;92372.47;4897650;29;20044;-77
2023/05/24 06:12:46;;;;;;;8.18;4.47;;;;;;;15.55;100.00;92386.03;4882359;29;20490;-76
2023/05/24 06:15:12;;;;;;;8.13;3.33;;;;;;;15.37;100.00;92379.31;4917916;29;20499;-77
2023/05/24 06:17:38;;;;;;;10.10;3.80;;;;;;;15.35;100.00;92392.03;4885697;29;20028;-77
2023/05/24 06:20:14;;;;;;;6.38;3.70;;;;;;;15.27;100.00;92387.59;4900996;29;20040;-76
2023/05/24 06:22:41;;;;;;;6.22;3.58;;;;;;;15.29;99.50;92394.09;4902571;29;20063;-77
2023/05/24 06:25:08;;;;;;;7.78;3.78;;;;;;;15.27;99.61;92391.00;4901157;29;20522;-76
2023/05/24 06:27:33;;;;;;;8.20;3.20;;;;;;;15.32;99.18;92393.44;4918059;29;20607;-76
2023/05/24 06:29:59;;;;;;;7.97;3.33;;;;;;;15.32;98.19;92392.66;4916834;29;20032;-77
2023/05/24 06:32:25;;;;;;;6.32;3.50;;;;;;;15.34;99.08;92399.19;4918065;29;20339;-77
2023/05/24 06:34:50;;;;;;;5.35;3.15;;;;;;;15.35;97.83;92392.78;4917656;29;20067;-76
2023/05/24 06:37:16;;;;;;;5.68;2.85;;;;;;;15.36;95.97;92404.91;4917882;29;20384;-77
2023/05/24 06:39:41;;;;;;;6.72;3.20;;;;;;;15.41;92.43;92406.59;4884991;29;20069;-77
2023/05/24 06:42:07;;;;;;;8.18;3.38;;;;;;;15.45;93.07;92404.09;4917810;29;20371;-77
2023/05/24 06:44:35;;;;;;;6.28;3.60;;;;;;;15.47;96.43;92415.88;4917845;29;20051;-77
2023/05/24 06:47:01;;;;;;;6.85;3.47;;;;;;;15.47;100.00;92418.53;4900668;29;20507;-77
2023/05/24 06:49:27;;;;;;;7.60;4.10;;;;;;;15.44;100.00;92434.19;4917719;29;20024;-77
2023/05/24 06:51:52;;;;;;;7.40;3.75;;;;;;;15.42;100.00;92429.22;4916804;29;20107;-76
2023/05/24 06:54:18;;;;;;;6.90;3.83;;;;;;;15.37;100.00;92429.41;4898122;29;20061;-78
2023/05/24 06:56:44;;;;;;;9.07;3.95;;;;;;;15.28;100.00;92428.66;4899509;29;20036;-77
2023/05/24 06:59:09;;;;;;;8.82;4.03;;;;;;;15.14;100.00;92437.56;4897821;29;20041;-77
2023/05/24 07:01:38;;;;;;;7.47;4.38;;;;;;;15.01;100.00;92441.16;4898629;29;20048;-77
2023/05/24 07:04:08;;;;;;;8.85;4.38;;;;;;;14.93;100.00;92440.09;4898819;29;20032;-77
2023/05/24 07:06:36;;;;;;;8.73;4.45;;;;;;;14.86;100.00;92429.28;4898166;29;20047;-77
2023/05/24 07:09:03;;;;;;;11.07;4.50;;;;;;;14.83;100.00;92431.75;4898015;29;20024;-77
2023/05/24 07:11:29;;;;;;;10.45;4.75;;;;;;;14.79;100.00;92426.31;4897786;29;20499;-77
2023/05/24 07:13:56;;;;;;;12.10;4.90;;;;;;;14.68;100.00;92428.53;4899163;29;20029;-77
2023/05/24 07:16:22;;;;;;;8.10;4.30;;;;;;;14.60;100.00;92426.66;4900514;29;20072;-78
2023/05/24 07:18:47;;;;;;;6.50;4.20;;;;;;;14.52;100.00;92419.50;4881273;29;20068;-77
2023/05/24 07:21:13;;;;;;;6.13;3.58;;;;;;;14.47;100.00;92414.41;4883391;29;20503;-78
2023/05/24 07:23:38;;;;;;;7.22;4.18;;;;;;;14.41;100.00;92423.53;4901035;29;20397;-78
2023/05/24 07:26:04;;;;;;;8.32;4.15;;;;;;;14.35;100.00;92426.34;4900252;29;20083;-78
2023/05/24 07:28:30;;;;;;;6.40;4.20;;;;;;;14.31;100.00;92430.66;4900735;29;20037;-78
2023/05/24 07:30:55;;;;;;;8.38;4.60;;;;;;;14.29;100.00;92427.56;4900777;29;20268;-78
2023/05/24 07:33:21;;;;;;;8.35;4.30;;;;;;;14.21;100.00;92428.38;4900549;29;20032;-78
2023/05/24 07:35:50;;;;;;;13.25;4.63;;;;;;;14.16;100.00;92412.69;4901013;29;20120;-79
2023/05/24 07:38:17;;;;;;;6.75;3.10;;;;;;;14.08;100.00;92405.59;4900848;29;20037;-78
2023/05/24 07:40:43;;;;;;;6.55;3.20;;;;;;;14.06;100.00;92402.50;4900866;29;20033;-78
2023/05/24 07:43:08;;;;;;;11.13;4.35;;;;;;;14.07;100.00;92404.03;4901135;29;20052;-79
2023/05/24 07:45:34;;;;;;;9.45;5.28;;;;;;;14.05;100.00;92398.28;4899670;29;20036;-79
2023/05/24 07:48:00;;;;;;;8.70;4.10;;;;;;;14.00;100.00;92393.19;4900594;29;20094;-79
2023/05/24 07:50:26;;;;;;;8.07;3.45;;;;;;;13.98;100.00;92396.13;4900748;29;20454;-79
2023/05/24 07:52:52;;;;;;;8.27;3.92;;;;;;;13.98;100.00;92390.09;4914999;29;20075;-79
2023/05/24 07:55:18;;;;;;;5.65;3.55;;;;;;;13.95;100.00;92397.53;4938449;29;20049;-79
2023/05/24 07:57:43;;;;;;;7.28;3.53;;;;;;;13.95;100.00;92397.53;4938624;29;20027;-79
2023/05/24 08:00:13;;;;;;;8.82;3.95;;;;;;;13.92;100.00;92413.94;4921434;29;20064;-79
2023/05/24 08:02:40;;;;;;;10.80;3.63;;;;;;;13.85;100.00;92416.25;4921150;29;20044;-79
2023/05/24 08:05:08;;;;;;;11.82;4.10;;;;;;;13.78;100.00;92410.69;4937994;29;20055;-79
2023/05/24 08:07:34;;;;;;;11.45;4.28;;;;;;;13.74;100.00;92417.63;4906305;29;20036;-79
2023/05/24 08:09:59;;;;;;;6.80;3.70;;;;;;;13.75;100.00;92414.66;4938250;29;20039;-78
2023/05/24 08:12:25;;;;;;;6.40;3.47;;;;;;;13.76;100.00;92418.09;4936906;29;20112;-79
2023/05/24 08:14:51;;;;;;;6.82;3.67;;;;;;;13.77;100.00;92419.63;4935775;29;20040;-79
2023/05/24 08:17:16;;;;;;;7.57;3.40;;;;;;;13.74;100.00;92412.38;4915084;29;20038;-78
2023/05/24 08:19:42;;;;;;;5.38;3.50;;;;;;;13.73;100.00;92416.06;4936812;29;20050;-79
2023/05/24 08:22:08;;;;;;;6.80;3.80;;;;;;;13.74;100.00;92407.88;4914790;29;20401;-79
2023/05/24 08:24:33;;;;;;;7.78;3.78;;;;;;;13.77;100.00;92409.09;4938236;29;20058;-79
2023/05/24 08:26:59;;;;;;;5.97;3.78;;;;;;;13.83;100.00;92405.25;4936466;29;20135;-79
2023/05/24 08:29:24;;;;;;;6.18;3.92;;;;;;;13.90;100.00;92402.94;4927951;29;20135;-79
2023/05/24 08:31:50;;;;;;;7.22;3.63;;;;;;;13.97;100.00;92399.09;4919229;29;20490;-79
2023/05/24 08:34:16;;;;;;;9.13;3.60;;;;;;;14.04;100.00;92409.91;4929927;29;20043;-79
2023/05/24 08:36:42;;;;;;;6.32;3.17;;;;;;;14.05;100.00;92409.63;4937817;29;20553;-79
2023/05/24 08:39:09;;;;;;;4.85;3.22;;;;;;;14.08;100.00;92405.59;4935187;29;20035;-79
2023/05/24 08:41:37;;;;;;;7.50;3.35;;;;;;;14.15;100.00;92416.44;4932371;29;20495;-79
2023/05/24 08:44:06;;;;;;;7.32;3.97;;;;;;;14.24;100.00;92416.44;4929775;29;20056;-79
2023/05/24 08:46:34;;;;;;;5.80;3.40;;;;;;;14.33;100.00;92419.84;4937401;29;20031;-79
2023/05/24 08:49:02;;;;;;;6.35;3.22;;;;;;;14.49;100.00;92420.13;4937850;29;20055;-79
2023/05/24 08:51:29;;;;;;;9.98;3.50;;;;;;;14.46;100.00;92418.13;4929876;29;20027;-78
2023/05/24 08:53:57;;;;;;;7.32;3.33;;;;;;;14.51;100.00;92412.69;4906539;29;20051;-79
2023/05/24 08:56:25;;;;;;;5.65;3.00;;;;;;;14.56;100.00;92425.72;4928459;29;20119;-79
2023/05/24 08:58:51;;;;;;;5.68;3.15;;;;;;;14.61;100.00;92422.94;4930684;29;20083;-79
2023/05/24 09:01:16;;;;;;;5.05;3.20;;;;;;;14.67;100.00;92416.41;4919895;29;20040;-79
2023/05/24 09:03:45;;;;;;;7.35;3.60;;;;;;;14.75;100.00;92420.16;4929744;29;20051;-78
2023/05/24 09:06:12;;;;;;;5.03;3.15;;;;;;;14.83;100.00;92413.31;4913709;29;20079;-78
2023/05/24 09:08:40;;;;;;;5.72;3.30;;;;;;;14.95;100.00;92405.50;4927173;29;20040;-79
2023/05/24 09:11:07;;;;;;;5.55;3.42;;;;;;;15.03;100.00;92409.97;4925670;29;20051;-79
2023/05/24 09:13:34;;;;;;;5.15;3.15;;;;;;;15.17;100.00;92413.19;4926227;29;20045;-78
2023/05/24 09:16:00;;;;;;;5.93;3.45;;;;;;;15.29;100.00;92409.09;4926804;29;20028;-79
2023/05/24 09:18:26;;;;;;;7.03;3.60;;;;;;;15.35;100.00;92407.84;4916931;29;20050;-79
2023/05/24 09:20:52;;;;;;;5.03;3.08;;;;;;;15.40;100.00;92411.09;4927265;29;20039;-79
2023/05/24 09:23:18;;;;;;;6.10;3.42;;;;;;;15.42;100.00;92408.13;4909319;29;20055;-79
2023/05/24 09:25:45;;;;;;;4.55;2.90;;;;;;;15.53;100.00;92401.41;4918296;29;20242;-79
2023/05/24 09:28:16;;;;;;;4.85;2.90;;;;;;;15.67;100.00;92413.59;4919691;29;20135;-78
2023/05/24 09:30:43;;;;;;;4.57;2.65;;;;;;;15.57;100.00;92412.88;4936237;29;20071;-78
2023/05/24 09:33:09;;;;;;;5.35;3.05;;;;;;;15.58;100.00;92426.81;4933699;29;20107;-79
2023/05/24 09:35:35;;;;;;;5.80;3.47;;;;;;;15.63;100.00;92424.03;4932863;29;20041;-79
2023/05/24 09:38:02;;;;;;;9.68;3.80;;;;;;;15.66;100.00;92438.44;4917479;29;20036;-78
2023/05/24 09:40:28;;;;;;;8.63;3.70;;;;;;;15.64;100.00;92432.72;4925402;29;20040;-79
2023/05/24 09:43:08;;;;;;;5.85;3.28;;;;;;;15.58;100.00;92435.53;4901295;29;20090;-78
2023/05/24 09:45:45;;;;;;;6.55;3.35;;;;;;;15.53;100.00;92442.84;4935560;29;20066;-78
2023/05/24 09:48:12;;;;;;;5.25;3.35;;;;;;;15.45;100.00;92441.81;4936488;29;20040;-78
2023/05/24 09:50:38;;;;;;;6.53;3.60;;;;;;;15.36;100.00;92441.06;4939802;29;20046;-78
2023/05/24 09:53:05;;;;;;;7.22;3.70;;;;;;;15.31;100.00;92446.50;4914699;29;20087;-78
2023/05/24 09:55:35;;;;;;;6.55;3.63;;;;;;;15.23;100.00;92452.59;4940023;29;20043;-78
2023/05/24 09:58:03;;;;;;;6.28;3.78;;;;;;;15.13;100.00;92446.56;4932847;29;20059;-78
2023/05/24 10:00:34;;;;;;;6.45;3.60;;;;;;;15.02;100.00;92450.63;4929845;29;20494;-79
2023/05/24 10:03:05;;;;;;;8.82;3.80;;;;;;;14.92;100.00;92446.44;4938207;29;20110;-79
2023/05/24 10:05:32;;;;;;;8.30;4.05;;;;;;;14.91;100.00;92437.00;4939224;29;20091;-79
2023/05/24 10:07:58;;;;;;;11.07;4.07;;;;;;;14.89;100.00;92433.91;4925296;29;20071;-78
2023/05/24 10:10:29;;;;;;;8.60;3.45;;;;;;;14.84;100.00;92414.84;4940940;29;20067;-79
2023/05/24 10:12:56;;;;;;;6.20;3.40;;;;;;;14.72;100.00;92403.06;4935228;29;20123;-79
2023/05/24 10:15:22;;;;;;;6.97;3.72;;;;;;;14.70;100.00;92412.38;4908882;29;20443;-79
2023/05/24 10:17:47;;;;;;;6.57;3.55;;;;;;;14.70;100.00;92409.75;4940278;29;20054;-79
2023/05/24 10:20:14;;;;;;;6.38;3.58;;;;;;;14.68;100.00;92402.19;4942382;29;20426;-79
2023/05/24 10:22:46;;;;;;;6.72;3.28;;;;;;;14.67;100.00;92400.63;4925608;29;20054;-77
2023/05/24 10:25:15;;;;;;;;;;;;;;;14.68;100.00;92407.44;4933639;29;20060;-79
2023/05/24 10:27:43;;;;;;;8.02;4.15;;;;;;;14.72;100.00;92408.34;4936991;29;19918;-79
2023/05/24 10:30:29;;;;;;;9.02;5.35;;;;;;;14.70;100.00;92400.00;4914950;29;20028;-79
2023/05/24 10:32:56;;;;;;;10.52;4.55;;;;;;;14.69;100.00;92392.41;4927037;29;20111;-79
2023/05/24 10:35:23;;;;;;;7.63;4.25;;;;;;;14.81;100.00;92386.47;4936049;29;20375;-79
2023/05/24 10:37:49;;;;;;;12.98;4.70;;;;;;;14.96;100.00;92378.06;4932192;29;20027;-79
2023/05/24 10:40:18;;;;;;;10.50;4.72;;;;;;;15.13;100.00;92378.03;4938311;29;20426;-79
2023/05/24 10:42:45;;;;;;;6.60;3.85;;;;;;;15.24;100.00;92386.34;4924634;29;20035;-78
2023/05/24 10:45:31;;;;;;;6.03;3.80;;;;;;;15.38;100.00;92386.13;4937856;29;20027;-78
2023/05/24 10:48:00;;;;;;;6.35;3.72;;;;;;;15.50;100.00;92388.09;4926884;29;20111;-79
2023/05/24 10:50:27;;;;;;;7.35;3.60;;;;;;;15.59;100.00;92397.50;4937486;29;20043;-78
2023/05/24 10:53:21;;;;;;;8.27;4.55;;;;;;;15.53;100.00;92398.00;4935587;29;20048;-79
2023/05/24 10:55:57;;;;;;;8.20;4.43;;;;;;;15.57;100.00;92412.88;4931128;29;20438;-78
2023/05/24 10:58:57;;;;;;;8.75;4.90;;;;;;;15.52;100.00;92407.78;4939209;29;20130;-78
2023/05/24 11:01:27;;;;;;;8.68;4.75;;;;;;;15.58;100.00;92414.44;4909303;29;20063;-77
2023/05/24 11:04:05;;;;;;;6.93;4.40;;;;;;;15.59;100.00;92413.31;4914462;29;20035;-78
2023/05/24 11:06:47;;;;;;;7.20;4.53;;;;;;;15.67;100.00;92414.38;4938150;29;20122;-77
2023/05/24 11:09:18;;;;;;;7.13;4.40;;;;;;;15.76;100.00;92407.22;4933356;29;20510;-78
2023/05/24 11:11:46;;;;;;;8.18;4.57;;;;;;;15.89;100.00;92410.69;4938695;29;20383;-78
2023/05/24 11:14:18;;;;;;;7.60;4.60;;;;;;;16.00;100.00;92411.09;4932615;29;20027;-78
2023/05/24 11:16:45;;;;;;;8.63;4.97;;;;;;;16.12;100.00;92415.69;4936364;29;20043;-78
2023/05/24 11:19:19;;;;;;;6.90;4.60;;;;;;;16.29;100.00;92417.44;4930685;29;20039;-78
2023/05/24 11:21:47;;;;;;;7.60;4.25;;;;;;;16.35;100.00;92408.22;4921231;29;20038;-78
2023/05/24 11:24:15;;;;;;;7.97;4.43;;;;;;;16.44;100.00;92412.34;4914143;29;20024;-78
2023/05/24 11:26:42;;;;;;;11.60;5.60;;;;;;;16.46;100.00;92406.72;4930901;29;20047;-78